AirNav   Everest Fuels
 
 410 users online  

24TA Moore Ranch Airport
Centerville, Texas, USA

GOING TO CENTERVILLE?


FAA INFORMATION EFFECTIVE 22 APRIL 2021

Location

FAA Identifier: 24TA
Lat/Long: 31-12-47.6560N 095-49-38.8330W
31-12.794267N 095-49.647217W
31.2132378,-95.8274536
(estimated)
Elevation: 315 ft. / 96 m (estimated)
Variation: 06E (1985)
From city: 9 miles E of CENTERVILLE, TX
Time zone: UTC -5 (UTC -6 during Standard Time)
Zip code: 75833

Airport Operations

Airport use: Private use. Permission required prior to landing
Activation date: 11/1990
Control tower: no
ARTCC: HOUSTON CENTER
FSS: MONTGOMERY COUNTY FLIGHT SERVICE STATION
Attendance: UNATNDD
Segmented circle: no

Nearby radio navigation aids

VOR radial/distance  VOR name  Freq  Var
LOAr045/9.0LEONA VORTAC110.8008E

 
NDB name  Hdg/Dist  Freq  Var  ID
HUNTSVILLE331/30.930806EUTS ..- - ...
PALESTINE187/34.737504EPSN .--. ... -.

Airport Services

Runway Information

Runway 17/35

Dimensions: 2500 x 70 ft. / 762 x 21 m
Surface: turf
RUNWAY 17  RUNWAY 35
Traffic pattern: leftleft
Obstructions: 4 ft. fence4 ft. fence

Airport Ownership and Management from official FAA records

Ownership: Privately-owned
Owner: HAROLD R. MOORE
764 W. COMMERCE
FAIRFIELD, TX 75840
Phone 903-389-4151
Manager: HAROLD R. MOORE
764 W. COMMERCE
FAIRFIELD, TX 75840
Phone 903-389-4151

Additional Remarks

FOR CD CTC HOUSTON ARTCC AT 281-230-5622.

Instrument Procedures

There are no published instrument procedures at 24TA.

Some nearby airports with instrument procedures:

51R - Madisonville Municipal Airport (19 nm S)
KDKR - Houston County Airport (22 nm E)
KUTS - Huntsville Municipal Airport (31 nm SE)
KPSN - Palestine Municipal Airport (35 nm N)
KCFD - Coulter Field Airport (40 nm SW)
 
Loc | Ops | Rwys | IFR | FBO | Links
Com | Nav | Svcs | Stats | Notes
Area around 24TA (Moore Ranch Airport)
 
Road maps at: MapQuest Bing Google
 
Aerial photo
No photo
 
Sectional chart

 
Airport distance calculator
Flying to Moore Ranch Airport? Find the distance to fly.

From to 24TA

Sunrise and sunset
Times for 09-May-2021
 Local
(UTC-5)
 Zulu
(UTC)
Morning civil twilight06:0711:07
Sunrise06:3311:33
Sunset20:0701:07
Evening civil twilight20:3301:33

Current date and time
Zulu (UTC)  09-May-2021 07:19:53
Local (UTC-5)  09-May-2021 02:19:53
 
METAR
KDKR 
22nm E 
090655Z AUTO 15009KT 10SM SCT014 BKN020 OVC026 23/21 A2983 RMK AO2
KUTS 
30nm SE 
090653Z AUTO 18010G17KT 10SM OVC021 25/22 A2985 RMK AO2 SLP104 T02500222
KPSN 
35nm N 
090655Z AUTO 18011G18KT 10SM OVC023 23/21 A2982 RMK AO2
KCFD 
40nm SW 
090655Z AUTO 16017G26KT 10SM OVC017 24/21 A2985 RMK AO2 T02390213
KLXY 
44nm NW 
090655Z AUTO 20017G34KT 10SM BKN022 OVC030 24/20 A2980 RMK AO2 T02400200
TAF
KUTS 
30nm SE 
090520Z 0906/1006 17010KT P6SM BKN015 BKN025 FM091500 19012G21KT P6SM SCT020 BKN030 FM091800 19012G20KT P6SM VCSH BKN035 BKN045 FM092200 18012KT P6SM VCTS SCT030CB BKN060 FM100100 17007KT P6SM VCSH SCT020 BKN050
NOTAMs
Click for the latest NOTAMs
NOTAMs are issued by the DoD/FAA and will open in a separate window not controlled by AirNav.

 

 
 

Would you like to see your business listed on this page?

 If your business provides an interesting product or service to pilots, flight crews, aircraft, or users of the Moore Ranch Airport, you should consider listing it here.  To start the listing process, click on the button below
 
Add a business
 

Other Pages about Moore Ranch Airport

Update a link
 
Copyright © AirNav, LLC. All rights reserved. Privacy Policy  Contact